Paul R Tregurtha — WYR4481 — position and weather

sailwx.info

Track history (hours):
 
Tides and Currents Weather Stations Pressure Air Temp Water Temp Dewpoint Dewpoint Depression Visibility Wind Speed Wind Dir Waves Ship Positions

Paul R Tregurtha

Owner: THE INTERLAKE STEAMSHIP COMPANY, Middleburg Heights, OH. More information available from US FCC via Universal Licensing System and Coast Guard Vessel Documentation Center.

Last reported at 2014-Nov-26 15:00 UTC. Time now 2014-Nov-26 17:10 UTC.
Position N 44°42' W 082°54'.

Length 308 m; draft 8.5 m.

Type: Cargo ship. MMSI: 366904940.

Wind from 160 at 4 knots

Barometer 1022.5 mb
Air temperature -0.5 ° C
Water temperature 6.5 ° C

Date/timePositionNaut miles runAvg speedWind from/ knotsBaromVisibWave heightAir tempDewpointWater temp
2014-Nov-26 15:00N 44°42' W 082°54'1312.7 160 / 41022.5 -0.5 6.5
2014-Nov-26 14:00N 44°30' W 082°48'103 7.3 180 / 31022.5 -0.4 6.5
2014-Nov-26 00:00N 42°48' W 082°30'0 0.0 330 / 21020.8 -0.0 9.8
2014-Nov-25 23:00N 42°48' W 082°30'0 0.0 280 / 51020.1 -0.0 9.5
2014-Nov-25 22:00N 42°48' W 082°30'0 0.0 260 / 121019.4 0.4 9.5
2014-Nov-25 21:00N 42°48' W 082°30'0 0.0 280 / 61018.8 0.8 9.6
2014-Nov-25 20:00N 42°48' W 082°30'0 0.0 280 / 61017.4 0.6 9.6
2014-Nov-25 19:00N 42°48' W 082°30'0 0.0 280 / 61016.4 0.6 9.6
2014-Nov-25 18:00N 42°48' W 082°30'0 0.0 270 / 121016.0 0.3 9.4
2014-Nov-25 17:00N 42°48' W 082°30'0 0.0 280 / 111015.7 -0.0 9.6
2014-Nov-25 16:00N 42°48' W 082°30'0 0.0 280 / 71015.4 -0.2 9.5
2014-Nov-25 15:00N 42°48' W 082°30'0 0.0 250 / 111014.0 -0.4 7.9
2014-Nov-25 14:00N 42°48' W 082°30'1312.8 250 / 111012.3 -0.3 6.5
2014-Nov-25 13:00N 43°00' W 082°24'6 6.0 240 / 161011.0 -0.2 6.4
2014-Nov-25 12:00N 43°06' W 082°24'1212.0 260 / 221008.6 0.5 6.8
2014-Nov-25 11:00N 43°18' W 082°24'1312.8 240 / 231007.2 0.4 6.9
2014-Nov-25 10:00N 43°30' W 082°30'1212.0 240 / 251005.9 0.5 6.9
2014-Nov-25 09:00N 43°42' W 082°30'1212.0 230 / 271004.2 0.9 5.5
2014-Nov-25 08:00N 43°54' W 082°30'1514.8 230 / 311003.9 1.2 6.3
2014-Nov-25 07:00N 44°06' W 082°42'1312.9 230 / 351002.2 1.3 6.2
2014-Nov-25 06:00N 44°06' W 083°00'9 8.6 240 / 351001.5 2.1 4.7
2014-Nov-25 05:00N 44°06' W 083°12'1312.9 210 / 341000.1 2.2 5.7
2014-Nov-25 04:00N 44°06' W 083°30'7 7.4 210 / 29998.8 2.3 4.9
2014-Nov-25 03:00N 44°12' W 083°24'1514.8 210 / 35996.110.8 1.8 6.4
2014-Nov-25 02:00N 44°24' W 083°12'6 6.0 210 / 36992.7 1.6 5.9
2014-Nov-25 01:00N 44°30' W 083°12'1212.0 230 / 31991.7 5.4 1.8 6.4
2014-Nov-25 00:00N 44°42' W 083°12'1312.7 230 / 33988.3 2.1 5.7
2014-Nov-24 23:00N 44°54' W 083°06'1212.0 210 / 27985.6 6.2 6.1
2014-Nov-24 22:00N 45°06' W 083°06'1514.7 230 / 6986.2 7.6 5.9
2014-Nov-24 21:00N 45°18' W 083°18'1010.3 290 / 8984.9 7.6 6.3
2014-Nov-24 20:00N 45°24' W 083°30'1414.0 280 / 10983.9 6.9 6.2
2014-Nov-24 19:00N 45°30' W 083°48'711.2 270 / 11983.5 6.9 5.9
2014-Nov-24 18:23N 45°33' W 083°56'4 9.2
2014-Nov-24 18:00N 45°36' W 084°00'512.4 250 / 11982.5 6.5 5.2
2014-Nov-24 17:33N 45°38' W 084°07'4 7.5
2014-Nov-24 17:00N 45°42' W 084°06'818.8 260 / 16980.5 5.9 5.6
2014-Nov-24 16:33N 45°49' W 083°59'611.4
2014-Nov-24 16:00N 45°54' W 083°54'1312.7 260 / 21979.8 5.2 3.7
2014-Nov-24 15:00N 46°06' W 084°00'2 4.5 250 / 14980.1 5.5 2.2
2014-Nov-24 14:31N 46°08' W 084°01'510.1
2014-Nov-24 14:00N 46°12' W 084°06'7 7.3 230 / 2979.1 4.6 3.5
2014-Nov-24 13:00N 46°18' W 084°12'6 6.0 330 / 1979.5 4.9 4.1
2014-Nov-24 12:00N 46°24' W 084°12'7 7.3 030 / 2979.5 5.3 4.2
2014-Nov-24 11:00N 46°30' W 084°18'4 4.1 100 / 5980.8 5.6 3.9
2014-Nov-24 10:00N 46°30' W 084°24'0 0.0 090 / 5982.4 5.4 4.3
2014-Nov-24 09:00N 46°30' W 084°24'8 8.3 080 / 8984.1 5.7 4.1
2014-Nov-24 08:00N 46°30' W 084°36'1010.2 070 / 14986.8 5.2 5.6
2014-Nov-24 07:00N 46°36' W 084°48'1312.7 120 / 18987.8 6.2 6.2
2014-Nov-24 06:00N 46°48' W 084°54'1010.2 080 / 14990.5 5.9 5.4
2014-Nov-24 05:00N 46°54' W 085°06'1413.7 120 / 15992.6 5.7 5.4
2014-Nov-24 04:00N 47°00' W 085°24'9612.1 120 / 15993.9 5.3 6.0
2014-Nov-23 20:00N 47°36' W 087°36'1212.1 160 / 17997.0 6.2 6.1
2014-Nov-23 19:00N 47°36' W 087°54'1616.2 150 / 12997.6 6.6 5.2
2014-Nov-23 18:00N 47°36' W 088°18'1212.1 170 / 15998.0 6.6 5.3
2014-Nov-23 17:00N 47°36' W 088°36'1413.5 170 / 17998.610.8 6.0 4.9
2014-Nov-23 16:00N 47°30' W 088°54'8 8.1 170 / 14998.610.8 5.8 4.7
2014-Nov-23 15:00N 47°30' W 089°06'5012.5 150 / 22998.6 6.0 5.2
2014-Nov-23 11:00N 47°18' W 090°18'1212.2 100 / 11997.6 3.9 4.2
2014-Nov-23 10:00N 47°18' W 090°36'1413.6 100 / 13998.3 3.2 4.3
2014-Nov-23 09:00N 47°12' W 090°54'1010.1 110 / 15998.6 3.1 5.0
2014-Nov-23 08:00N 47°06' W 091°06'1413.7 080 / 121000.0 2.9 4.8
2014-Nov-23 07:00N 47°00' W 091°24'1413.7 090 / 101000.7 2.3 4.8
2014-Nov-23 06:00N 46°54' W 091°42'1010.2 110 / 81001.7 2.5 4.5
2014-Nov-23 05:00N 46°48' W 091°54'8 8.2 130 / 111002.0 2.1 3.8
2014-Nov-23 04:00N 46°48' W 092°06'6 6.0 120 / 61003.0 1.7 0.7
2014-Nov-23 03:00N 46°42' W 092°06'0 0.0 140 / 31003.7 1.8 0.9
2014-Nov-23 02:00N 46°42' W 092°06'0 0.0 160 / 41004.1 2.2 1.0
2014-Nov-23 01:00N 46°42' W 092°06'0 0.0 160 / 41004.7 2.5 1.0
2014-Nov-23 00:00N 46°42' W 092°06'0 0.0 180 / 71004.1 2.4 1.0
2014-Nov-22 23:00N 46°42' W 092°06'0 0.0 220 / 61004.7 3.7 0.7
2014-Nov-22 22:00N 46°42' W 092°06'0 0.0 150 / 61005.1 3.8 0.8
2014-Nov-22 21:00N 46°42' W 092°06'0 0.0 240 / 61005.1 3.9 0.8
2014-Nov-22 20:00N 46°42' W 092°06'0 0.0 270 / 91005.4 4.7 0.7
2014-Nov-22 19:00N 46°42' W 092°06'0 0.0 330 / 81005.4 5.0 0.8
2014-Nov-22 18:00N 46°42' W 092°06'6 6.0 230 / 61006.1 3.0 0.8
2014-Nov-22 17:00N 46°48' W 092°06'0 0.0 250 / 81006.8 1.2 0.9
2014-Nov-22 16:00N 46°48' W 092°06'0 0.0 240 / 81006.8 0.6 1.2
2014-Nov-22 15:00N 46°48' W 092°06'1212.3 200 / 61007.1 0.4 3.6
2014-Nov-22 14:00N 46°48' W 091°48'1413.7 220 / 101006.4 0.8 4.3
2014-Nov-22 13:00N 46°54' W 091°30'1212.3 220 / 131006.4 1.9 4.5
2014-Nov-22 12:00N 46°54' W 091°12'1010.2 230 / 141006.1 1.9 4.5
2014-Nov-22 11:00N 47°00' W 091°00'1413.7 220 / 151005.4 1.9 4.4
2014-Nov-22 10:00N 47°06' W 090°42'8 8.2 220 / 191005.4 1.9 4.4
2014-Nov-22 09:00N 47°06' W 090°30'18 9.0 220 / 221006.1 1.8 4.0
2014-Nov-22 07:00N 46°48' W 090°30'1212.0 230 / 251008.5 0.8 4.4
2014-Nov-22 06:00N 46°36' W 090°30'1010.2 200 / 271008.8 -0.2 4.5
2014-Nov-22 05:00N 46°42' W 090°18'1212.3 210 / 251008.1 1.2 4.6
2014-Nov-22 04:00N 46°42' W 090°00'1514.5 200 / 201008.810.8 0.4 4.6
2014-Nov-22 03:00N 46°54' W 089°48'1212.3 220 / 261008.8 -0.0 4.8
2014-Nov-22 02:00N 46°54' W 089°30'1010.2 210 / 261010.8 -0.7 4.9
2014-Nov-22 01:00N 47°00' W 089°18'1413.7 190 / 181012.210.8 -0.5 4.9
2014-Nov-22 00:00N 47°06' W 089°00'1010.1 190 / 271011.5 -1.6 5.5
2014-Nov-21 23:00N 47°12' W 088°48'1010.1 210 / 301012.2 5.4 -1.1 5.2
2014-Nov-21 22:00N 47°18' W 088°36'1010.1 190 / 231013.2 -1.1 6.3
2014-Nov-21 21:00N 47°24' W 088°24'1413.6 180 / 201014.6 -3.9 6.4
2014-Nov-21 20:00N 47°30' W 088°06'1212.2 190 / 241016.3 -4.8 5.6
2014-Nov-21 19:00N 47°30' W 087°48'7 7.2 220 / 191018.3 -5.7 5.6
2014-Nov-21 18:00N 47°24' W 087°42'1312.7 220 / 231019.6 -3.7 5.3
2014-Nov-21 17:00N 47°12' W 087°36'1312.7 220 / 181022.0 -5.5 5.3
2014-Nov-21 16:00N 47°00' W 087°30'1312.7 240 / 141023.4 -7.3 5.1
2014-Nov-21 15:00N 46°48' W 087°24'1212.0 230 / 171024.4 -8.4 5.5
2014-Nov-21 14:00N 46°36' W 087°24'0 0.0 240 / 111025.7 -10.6 3.2
2014-Nov-21 13:00N 46°36' W 087°24'0 0.0 200 / 71025.1 -11.9 2.9
2014-Nov-21 12:00N 46°36' W 087°24'0 0.0 230 / 81024.7 -11.5 2.9
2014-Nov-21 11:00N 46°36' W 087°24'0 0.0 210 / 71024.0 -11.1 3.0
2014-Nov-21 10:00N 46°36' W 087°24'0 0.0 310 / 61023.7 -10.3 3.0
2014-Nov-21 09:00N 46°36' W 087°24'0 0.0 200 / 61023.0 -10.8 3.0
2014-Nov-21 08:00N 46°36' W 087°24'0 0.0 200 / 71023.0 -9.7 3.1
2014-Nov-21 07:00N 46°36' W 087°24'0 0.0 160 / 51022.4 -7.5 3.2
2014-Nov-21 06:00N 46°36' W 087°24'0 0.0 220 / 61021.7 -9.3 3.3
2014-Nov-21 05:00N 46°36' W 087°24'0 0.0 210 / 61020.7 -8.6 3.3
2014-Nov-21 04:00N 46°36' W 087°24'0 0.0 210 / 81020.0 -9.6 3.4
2014-Nov-21 03:00N 46°36' W 087°24'0 0.0 210 / 71019.3 -10.4 3.4
2014-Nov-21 02:00N 46°36' W 087°24'0 0.0 200 / 71019.0 -11.2 3.4
2014-Nov-21 01:00N 46°36' W 087°24'0 0.0 220 / 41018.6 -12.6 3.5
2014-Nov-21 00:00N 46°36' W 087°24'0 0.0 210 / 51018.3 -10.4 3.5
2014-Nov-20 23:00N 46°36' W 087°24'0 0.0 260 / 81017.3 -8.4 3.5
2014-Nov-20 22:00N 46°36' W 087°24'0 0.0 250 / 121016.3 -7.9 3.5
2014-Nov-20 21:00N 46°36' W 087°24'0 0.0 240 / 91014.9 -6.6 3.5
2014-Nov-20 20:00N 46°36' W 087°24'0 0.0 280 / 121013.9 -6.5 3.4
2014-Nov-20 19:00N 46°36' W 087°24'0 0.0 260 / 91012.5 -6.0 3.4
2014-Nov-20 18:00N 46°36' W 087°24'0 0.0 250 / 151012.2 -6.3 3.2
2014-Nov-20 17:00N 46°36' W 087°24'0 0.0 310 / 61011.5 -5.2 3.0
2014-Nov-20 16:00N 46°36' W 087°24'7 7.3 270 / 171010.8 -7.1 3.9
2014-Nov-20 15:00N 46°42' W 087°18'1312.7 300 / 221009.5 -7.3 5.4
2014-Nov-20 14:00N 46°54' W 087°24'1312.7 330 / 191009.110.8 -6.4 5.5
2014-Nov-20 13:00N 47°06' W 087°30'1312.7 310 / 261008.1 -7.2 5.6
2014-Nov-20 12:00N 47°18' W 087°36'1312.7 330 / 231007.8 -7.2 5.4
2014-Nov-20 11:00N 47°30' W 087°42'1414.5 320 / 241007.1 -7.4 5.4
2014-Nov-20 10:00N 47°42' W 087°54'1010.1 290 / 221007.1 -7.5 5.0
2014-Nov-20 09:00N 47°48' W 088°06'1312.7 310 / 231006.8 -8.0 5.1
2014-Nov-20 08:00N 48°00' W 088°12'6711.1 330 / 201006.8 -8.7 5.2
2014-Nov-20 02:00N 47°42' W 089°48'1212.1 320 / 251006.410.8 1.0-6.8 5.3
2014-Nov-20 01:00N 47°42' W 090°06'1413.5 320 / 221006.8 -7.4 5.3
2014-Nov-20 00:00N 47°36' W 090°24'8 8.1 310 / 261006.1 -6.2 5.0
2014-Nov-19 23:00N 47°36' W 090°36'1413.5 300 / 231006.1 -5.7 4.9
2014-Nov-19 22:00N 47°30' W 090°54'1414.5 320 / 241005.8 -5.7 5.0
2014-Nov-19 21:00N 47°18' W 091°06'1010.1 300 / 241005.4 -4.8 4.9
2014-Nov-19 20:00N 47°12' W 091°18'1514.5 280 / 171005.8 -5.1 4.9
2014-Nov-19 19:00N 47°00' W 091°30'1413.7 290 / 241006.1 -5.1 4.7
2014-Nov-19 18:00N 46°54' W 091°48'1010.2 300 / 271006.4 -5.0 4.5
2014-Nov-19 17:00N 46°48' W 092°00'4 4.1 310 / 181007.5 -5.8 3.9
2014-Nov-19 16:00N 46°48' W 092°06'6 6.0 310 / 111007.5 -6.8 1.0
2014-Nov-19 15:00N 46°42' W 092°06'0 0.0 290 / 101007.5 -7.5 0.9
2014-Nov-19 14:00N 46°42' W 092°06'0 0.0 270 / 101006.8 -7.3 1.0
2014-Nov-19 13:00N 46°42' W 092°06'0 0.0 220 / 71006.1 -8.0 1.1
2014-Nov-19 12:00N 46°42' W 092°06'0 0.0 220 / 71006.1 -7.7 1.4
2014-Nov-19 11:00N 46°42' W 092°06'0 0.0 230 / 51006.1 -8.3 1.8
2014-Nov-19 10:00N 46°42' W 092°06'0 0.0 200 / 41006.1 -9.1 1.7
2014-Nov-19 09:00N 46°42' W 092°06'0 0.0 200 / 31006.8 -8.8 1.9
2014-Nov-19 08:00N 46°42' W 092°06'0 0.0 220 / 51007.1 -7.6 1.9
2014-Nov-19 07:00N 46°42' W 092°06'0 0.0 200 / 41007.5 -9.3 2.0
2014-Nov-19 06:00N 46°42' W 092°06'0 0.0 200 / 41008.5 -9.2 2.1
2014-Nov-19 05:00N 46°42' W 092°06'0 0.0 200 / 61008.8 -9.0 1.9
2014-Nov-19 04:00N 46°42' W 092°06'0 0.0 200 / 91009.8 -8.1 0.4
2014-Nov-19 03:00N 46°42' W 092°06'0 0.0 200 / 81010.5 -7.4 0.4
2014-Nov-19 02:00N 46°42' W 092°06'0 0.0 290 / 91010.8 -7.8 0.4
2014-Nov-19 01:00N 46°42' W 092°06'0 0.0 290 / 101011.5 -7.2 0.4
2014-Nov-19 00:00N 46°42' W 092°06'0 0.0 190 / 81011.9 -7.1 0.4
2014-Nov-18 23:00N 46°42' W 092°06'0 0.0 250 / 81012.2 -7.1 0.4
2014-Nov-18 22:00N 46°42' W 092°06'6 6.0 260 / 131012.2 -7.2 0.6
2014-Nov-18 21:00N 46°48' W 092°06'1413.7 250 / 111012.2 -9.0 4.3
2014-Nov-18 20:00N 46°54' W 091°48'1010.2 250 / 141011.5 -9.1 4.9
2014-Nov-18 19:00N 47°00' W 091°36'1514.5 260 / 141011.2 -8.8 4.8
2014-Nov-18 18:00N 47°12' W 091°24'1413.6 340 / 131010.8 -9.2 4.9
2014-Nov-18 17:00N 47°18' W 091°06'1414.5 290 / 181010.5 -9.5 5.0
2014-Nov-18 16:00N 47°30' W 090°54'1010.1 310 / 181010.8 -11.1 5.1
2014-Nov-18 15:00N 47°36' W 090°42'1413.5 320 / 201009.810.8 -12.7 4.7
2014-Nov-18 14:00N 47°42' W 090°24'1413.5 310 / 171008.8 -11.2 5.0
2014-Nov-18 13:00N 47°48' W 090°06'1212.1 310 / 221007.1 5.3
2014-Nov-18 12:00N 47°48' W 089°48'1313.5 320 / 311005.1 -10.8 5.8
2014-Nov-18 11:00N 47°54' W 089°30'1010.0 340 / 241005.8 -10.5 5.7
2014-Nov-18 10:00N 47°48' W 089°18'4511.2 330 / 251005.8 4.7
2014-Nov-18 06:00N 47°54' W 088°12'7 7.2 350 / 31999.7 -6.9 5.4
2014-Nov-18 05:00N 47°48' W 088°06'1010.1 330 / 301000.3 5.4 -6.8 5.3
2014-Nov-18 04:00N 47°42' W 087°54'1010.1 330 / 28999.7 0.5 -7.1 5.2
2014-Nov-18 03:00N 47°36' W 087°42'10610.6 360 / 27998.6 -6.6 5.6
2014-Nov-17 17:00N 46°54' W 085°18'1413.7 340 / 23999.310.8 -6.0 6.2
2014-Nov-17 16:00N 46°48' W 085°00'1010.2 170 / 141000.7 -6.5 6.1
2014-Nov-17 15:00N 46°42' W 084°48'1514.6 220 / 151002.0 5.4 -6.4 7.2
2014-Nov-17 14:00N 46°30' W 084°36'8 8.3 250 / 161002.0 -4.8 6.6
2014-Nov-17 13:00N 46°30' W 084°24'4 4.1 280 / 61003.0 -3.5 5.4
2014-Nov-17 12:00N 46°30' W 084°18'6 6.0 300 / 41003.2 -3.3 5.2
2014-Nov-17 11:00N 46°24' W 084°18'7 7.3 250 / 31003.9 -2.9 5.3
2014-Nov-17 10:00N 46°18' W 084°12'7 7.3 180 / 81004.2 -2.0 5.0
2014-Nov-17 09:00N 46°12' W 084°06'7 7.3 190 / 141005.2 0.3 4.5
2014-Nov-17 08:00N 46°06' W 084°00'1312.7 170 / 141006.2 -0.3 3.6
2014-Nov-17 07:00N 45°54' W 083°54'1514.6 210 / 231006.9 -0.0 5.5
2014-Nov-17 06:00N 45°42' W 083°42'1010.3 200 / 251007.9 -0.1 5.9
2014-Nov-17 05:00N 45°36' W 083°30'1312.7 190 / 231008.9 -0.2 7.2
2014-Nov-17 04:00N 45°24' W 083°24'1514.7 210 / 201010.310.8 -0.8 7.5
2014-Nov-17 03:00N 45°12' W 083°12'1312.7 220 / 251011.3 -0.4 7.5
2014-Nov-17 02:00N 45°00' W 083°06'1312.7 210 / 231012.010.8 0.4 7.8
2014-Nov-17 01:00N 44°48' W 083°00'1312.7 240 / 211013.3 0.6 7.8
2014-Nov-17 00:00N 44°36' W 082°54'1312.7 230 / 191014.0 1.1 7.7
2014-Nov-16 23:00N 44°24' W 082°48'1312.7 200 / 201015.0 5.4 1.0 0.2 7.6
2014-Nov-16 22:00N 44°12' W 082°42'1312.8 220 / 201015.4 5.4 -0.2 7.7
2014-Nov-16 21:00N 44°00' W 082°36'1312.8 250 / 151016.0 -0.0 7.8
2014-Nov-16 20:00N 43°48' W 082°30'1818.0 220 / 131016.4 -0.1 7.5
2014-Nov-16 19:00N 43°30' W 082°30'1312.8 210 / 141016.7 -0.0 8.1
2014-Nov-16 18:00N 43°18' W 082°24'1212.0 210 / 141017.1 0.2 8.0
2014-Nov-16 17:00N 43°06' W 082°24'6 6.0 220 / 151018.4 0.2 7.9
2014-Nov-16 16:00N 43°00' W 082°24'1312.8 230 / 101019.4 0.3 7.6
2014-Nov-16 15:00N 42°48' W 082°30'   200 / 121020.1 -0.1 7.6
Track history (hours):
 
Tides and Currents Weather Stations Pressure Air Temp Water Temp Dewpoint Dewpoint Depression Visibility Wind Speed Wind Dir Waves Ship Positions

Paul R Tregurtha

Owner: THE INTERLAKE STEAMSHIP COMPANY, Middleburg Heights, OH. More information available from US FCC via Universal Licensing System and Coast Guard Vessel Documentation Center.

Last reported at 2014-Nov-26 15:00 UTC. Time now 2014-Nov-26 17:10 UTC.
Position N 44°42' W 082°54'.

Length 308 m; draft 8.5 m.

Type: Cargo ship. MMSI: 366904940.

Wind from 160 at 4 knots

Barometer 1022.5 mb
Air temperature -0.5 ° C
Water temperature 6.5 ° C

Date/timePositionNaut miles runAvg speedWind from/ knotsBaromVisibWave heightAir tempDewpointWater temp
2014-Nov-26 15:00N 44°42' W 082°54'1312.7 160 / 41022.5 -0.5 6.5
2014-Nov-26 14:00N 44°30' W 082°48'103 7.3 180 / 31022.5 -0.4 6.5
2014-Nov-26 00:00N 42°48' W 082°30'0 0.0 330 / 21020.8 -0.0 9.8
2014-Nov-25 23:00N 42°48' W 082°30'0 0.0 280 / 51020.1 -0.0 9.5
2014-Nov-25 22:00N 42°48' W 082°30'0 0.0 260 / 121019.4 0.4 9.5
2014-Nov-25 21:00N 42°48' W 082°30'0 0.0 280 / 61018.8 0.8 9.6
2014-Nov-25 20:00N 42°48' W 082°30'0 0.0 280 / 61017.4 0.6 9.6
2014-Nov-25 19:00N 42°48' W 082°30'0 0.0 280 / 61016.4 0.6 9.6
2014-Nov-25 18:00N 42°48' W 082°30'0 0.0 270 / 121016.0 0.3 9.4
2014-Nov-25 17:00N 42°48' W 082°30'0 0.0 280 / 111015.7 -0.0 9.6
2014-Nov-25 16:00N 42°48' W 082°30'0 0.0 280 / 71015.4 -0.2 9.5
2014-Nov-25 15:00N 42°48' W 082°30'0 0.0 250 / 111014.0 -0.4 7.9
2014-Nov-25 14:00N 42°48' W 082°30'1312.8 250 / 111012.3 -0.3 6.5
2014-Nov-25 13:00N 43°00' W 082°24'6 6.0 240 / 161011.0 -0.2 6.4
2014-Nov-25 12:00N 43°06' W 082°24'1212.0 260 / 221008.6 0.5 6.8
2014-Nov-25 11:00N 43°18' W 082°24'1312.8 240 / 231007.2 0.4 6.9
2014-Nov-25 10:00N 43°30' W 082°30'1212.0 240 / 251005.9 0.5 6.9
2014-Nov-25 09:00N 43°42' W 082°30'1212.0 230 / 271004.2 0.9 5.5
2014-Nov-25 08:00N 43°54' W 082°30'1514.8 230 / 311003.9 1.2 6.3
2014-Nov-25 07:00N 44°06' W 082°42'1312.9 230 / 351002.2 1.3 6.2
2014-Nov-25 06:00N 44°06' W 083°00'9 8.6 240 / 351001.5 2.1 4.7
2014-Nov-25 05:00N 44°06' W 083°12'1312.9 210 / 341000.1 2.2 5.7
2014-Nov-25 04:00N 44°06' W 083°30'7 7.4 210 / 29998.8 2.3 4.9
2014-Nov-25 03:00N 44°12' W 083°24'1514.8 210 / 35996.110.8 1.8 6.4
2014-Nov-25 02:00N 44°24' W 083°12'6 6.0 210 / 36992.7 1.6 5.9
2014-Nov-25 01:00N 44°30' W 083°12'1212.0 230 / 31991.7 5.4 1.8 6.4
2014-Nov-25 00:00N 44°42' W 083°12'1312.7 230 / 33988.3 2.1 5.7
2014-Nov-24 23:00N 44°54' W 083°06'1212.0 210 / 27985.6 6.2 6.1
2014-Nov-24 22:00N 45°06' W 083°06'1514.7 230 / 6986.2 7.6 5.9
2014-Nov-24 21:00N 45°18' W 083°18'1010.3 290 / 8984.9 7.6 6.3
2014-Nov-24 20:00N 45°24' W 083°30'1414.0 280 / 10983.9 6.9 6.2
2014-Nov-24 19:00N 45°30' W 083°48'711.2 270 / 11983.5 6.9 5.9
2014-Nov-24 18:23N 45°33' W 083°56'4 9.2
2014-Nov-24 18:00N 45°36' W 084°00'512.4 250 / 11982.5 6.5 5.2
2014-Nov-24 17:33N 45°38' W 084°07'4 7.5
2014-Nov-24 17:00N 45°42' W 084°06'818.8 260 / 16980.5 5.9 5.6
2014-Nov-24 16:33N 45°49' W 083°59'611.4
2014-Nov-24 16:00N 45°54' W 083°54'1312.7 260 / 21979.8 5.2 3.7
2014-Nov-24 15:00N 46°06' W 084°00'2 4.5 250 / 14980.1 5.5 2.2
2014-Nov-24 14:31N 46°08' W 084°01'510.1
2014-Nov-24 14:00N 46°12' W 084°06'7 7.3 230 / 2979.1 4.6 3.5
2014-Nov-24 13:00N 46°18' W 084°12'6 6.0 330 / 1979.5 4.9 4.1
2014-Nov-24 12:00N 46°24' W 084°12'7 7.3 030 / 2979.5 5.3 4.2
2014-Nov-24 11:00N 46°30' W 084°18'4 4.1 100 / 5980.8 5.6 3.9
2014-Nov-24 10:00N 46°30' W 084°24'0 0.0 090 / 5982.4 5.4 4.3
2014-Nov-24 09:00N 46°30' W 084°24'8 8.3 080 / 8984.1 5.7 4.1
2014-Nov-24 08:00N 46°30' W 084°36'1010.2 070 / 14986.8 5.2 5.6
2014-Nov-24 07:00N 46°36' W 084°48'1312.7 120 / 18987.8 6.2 6.2
2014-Nov-24 06:00N 46°48' W 084°54'1010.2 080 / 14990.5 5.9 5.4
2014-Nov-24 05:00N 46°54' W 085°06'1413.7 120 / 15992.6 5.7 5.4
2014-Nov-24 04:00N 47°00' W 085°24'9612.1 120 / 15993.9 5.3 6.0
2014-Nov-23 20:00N 47°36' W 087°36'1212.1 160 / 17997.0 6.2 6.1
2014-Nov-23 19:00N 47°36' W 087°54'1616.2 150 / 12997.6 6.6 5.2
2014-Nov-23 18:00N 47°36' W 088°18'1212.1 170 / 15998.0 6.6 5.3
2014-Nov-23 17:00N 47°36' W 088°36'1413.5 170 / 17998.610.8 6.0 4.9
2014-Nov-23 16:00N 47°30' W 088°54'8 8.1 170 / 14998.610.8 5.8 4.7
2014-Nov-23 15:00N 47°30' W 089°06'5012.5 150 / 22998.6 6.0 5.2
2014-Nov-23 11:00N 47°18' W 090°18'1212.2 100 / 11997.6 3.9 4.2
2014-Nov-23 10:00N 47°18' W 090°36'1413.6 100 / 13998.3 3.2 4.3
2014-Nov-23 09:00N 47°12' W 090°54'1010.1 110 / 15998.6 3.1 5.0
2014-Nov-23 08:00N 47°06' W 091°06'1413.7 080 / 121000.0 2.9 4.8
2014-Nov-23 07:00N 47°00' W 091°24'1413.7 090 / 101000.7 2.3 4.8
2014-Nov-23 06:00N 46°54' W 091°42'1010.2 110 / 81001.7 2.5 4.5
2014-Nov-23 05:00N 46°48' W 091°54'8 8.2 130 / 111002.0 2.1 3.8
2014-Nov-23 04:00N 46°48' W 092°06'6 6.0 120 / 61003.0 1.7 0.7
2014-Nov-23 03:00N 46°42' W 092°06'0 0.0 140 / 31003.7 1.8 0.9
2014-Nov-23 02:00N 46°42' W 092°06'0 0.0 160 / 41004.1 2.2 1.0
2014-Nov-23 01:00N 46°42' W 092°06'0 0.0 160 / 41004.7 2.5 1.0
2014-Nov-23 00:00N 46°42' W 092°06'0 0.0 180 / 71004.1 2.4 1.0
2014-Nov-22 23:00N 46°42' W 092°06'0 0.0 220 / 61004.7 3.7 0.7
2014-Nov-22 22:00N 46°42' W 092°06'0 0.0 150 / 61005.1 3.8 0.8
2014-Nov-22 21:00N 46°42' W 092°06'0 0.0 240 / 61005.1 3.9 0.8
2014-Nov-22 20:00N 46°42' W 092°06'0 0.0 270 / 91005.4 4.7 0.7
2014-Nov-22 19:00N 46°42' W 092°06'0 0.0 330 / 81005.4 5.0 0.8
2014-Nov-22 18:00N 46°42' W 092°06'6 6.0 230 / 61006.1 3.0 0.8
2014-Nov-22 17:00N 46°48' W 092°06'0 0.0 250 / 81006.8 1.2 0.9
2014-Nov-22 16:00N 46°48' W 092°06'0 0.0 240 / 81006.8 0.6 1.2
2014-Nov-22 15:00N 46°48' W 092°06'1212.3 200 / 61007.1 0.4 3.6
2014-Nov-22 14:00N 46°48' W 091°48'1413.7 220 / 101006.4 0.8 4.3
2014-Nov-22 13:00N 46°54' W 091°30'1212.3 220 / 131006.4 1.9 4.5
2014-Nov-22 12:00N 46°54' W 091°12'1010.2 230 / 141006.1 1.9 4.5
2014-Nov-22 11:00N 47°00' W 091°00'1413.7 220 / 151005.4 1.9 4.4
2014-Nov-22 10:00N 47°06' W 090°42'8 8.2 220 / 191005.4 1.9 4.4
2014-Nov-22 09:00N 47°06' W 090°30'18 9.0 220 / 221006.1 1.8 4.0
2014-Nov-22 07:00N 46°48' W 090°30'1212.0 230 / 251008.5 0.8 4.4
2014-Nov-22 06:00N 46°36' W 090°30'1010.2 200 / 271008.8 -0.2 4.5
2014-Nov-22 05:00N 46°42' W 090°18'1212.3 210 / 251008.1 1.2 4.6
2014-Nov-22 04:00N 46°42' W 090°00'1514.5 200 / 201008.810.8 0.4 4.6
2014-Nov-22 03:00N 46°54' W 089°48'1212.3 220 / 261008.8 -0.0 4.8
2014-Nov-22 02:00N 46°54' W 089°30'1010.2 210 / 261010.8 -0.7 4.9
2014-Nov-22 01:00N 47°00' W 089°18'1413.7 190 / 181012.210.8 -0.5 4.9
2014-Nov-22 00:00N 47°06' W 089°00'1010.1 190 / 271011.5 -1.6 5.5
2014-Nov-21 23:00N 47°12' W 088°48'1010.1 210 / 301012.2 5.4 -1.1 5.2
2014-Nov-21 22:00N 47°18' W 088°36'1010.1 190 / 231013.2 -1.1 6.3
2014-Nov-21 21:00N 47°24' W 088°24'1413.6 180 / 201014.6 -3.9 6.4
2014-Nov-21 20:00N 47°30' W 088°06'1212.2 190 / 241016.3 -4.8 5.6
2014-Nov-21 19:00N 47°30' W 087°48'7 7.2 220 / 191018.3 -5.7 5.6
2014-Nov-21 18:00N 47°24' W 087°42'1312.7 220 / 231019.6 -3.7 5.3
2014-Nov-21 17:00N 47°12' W 087°36'1312.7 220 / 181022.0 -5.5 5.3
2014-Nov-21 16:00N 47°00' W 087°30'1312.7 240 / 141023.4 -7.3 5.1
2014-Nov-21 15:00N 46°48' W 087°24'1212.0 230 / 171024.4 -8.4 5.5
2014-Nov-21 14:00N 46°36' W 087°24'0 0.0 240 / 111025.7 -10.6 3.2
2014-Nov-21 13:00N 46°36' W 087°24'0 0.0 200 / 71025.1 -11.9 2.9
2014-Nov-21 12:00N 46°36' W 087°24'0 0.0 230 / 81024.7 -11.5 2.9
2014-Nov-21 11:00N 46°36' W 087°24'0 0.0 210 / 71024.0 -11.1 3.0
2014-Nov-21 10:00N 46°36' W 087°24'0 0.0 310 / 61023.7 -10.3 3.0
2014-Nov-21 09:00N 46°36' W 087°24'0 0.0 200 / 61023.0 -10.8 3.0
2014-Nov-21 08:00N 46°36' W 087°24'0 0.0 200 / 71023.0 -9.7 3.1
2014-Nov-21 07:00N 46°36' W 087°24'0 0.0 160 / 51022.4 -7.5 3.2
2014-Nov-21 06:00N 46°36' W 087°24'0 0.0 220 / 61021.7 -9.3 3.3
2014-Nov-21 05:00N 46°36' W 087°24'0 0.0 210 / 61020.7 -8.6 3.3
2014-Nov-21 04:00N 46°36' W 087°24'0 0.0 210 / 81020.0 -9.6 3.4
2014-Nov-21 03:00N 46°36' W 087°24'0 0.0 210 / 71019.3 -10.4 3.4
2014-Nov-21 02:00N 46°36' W 087°24'0 0.0 200 / 71019.0 -11.2 3.4
2014-Nov-21 01:00N 46°36' W 087°24'0 0.0 220 / 41018.6 -12.6 3.5
2014-Nov-21 00:00N 46°36' W 087°24'0 0.0 210 / 51018.3 -10.4 3.5
2014-Nov-20 23:00N 46°36' W 087°24'0 0.0 260 / 81017.3 -8.4 3.5
2014-Nov-20 22:00N 46°36' W 087°24'0 0.0 250 / 121016.3 -7.9 3.5
2014-Nov-20 21:00N 46°36' W 087°24'0 0.0 240 / 91014.9 -6.6 3.5
2014-Nov-20 20:00N 46°36' W 087°24'0 0.0 280 / 121013.9 -6.5 3.4
2014-Nov-20 19:00N 46°36' W 087°24'0 0.0 260 / 91012.5 -6.0 3.4
2014-Nov-20 18:00N 46°36' W 087°24'0 0.0 250 / 151012.2 -6.3 3.2
2014-Nov-20 17:00N 46°36' W 087°24'0 0.0 310 / 61011.5 -5.2 3.0
2014-Nov-20 16:00N 46°36' W 087°24'7 7.3 270 / 171010.8 -7.1 3.9
2014-Nov-20 15:00N 46°42' W 087°18'1312.7 300 / 221009.5 -7.3 5.4
2014-Nov-20 14:00N 46°54' W 087°24'1312.7 330 / 191009.110.8 -6.4 5.5
2014-Nov-20 13:00N 47°06' W 087°30'1312.7 310 / 261008.1 -7.2 5.6
2014-Nov-20 12:00N 47°18' W 087°36'1312.7 330 / 231007.8 -7.2 5.4
2014-Nov-20 11:00N 47°30' W 087°42'1414.5 320 / 241007.1 -7.4 5.4
2014-Nov-20 10:00N 47°42' W 087°54'1010.1 290 / 221007.1 -7.5 5.0
2014-Nov-20 09:00N 47°48' W 088°06'1312.7 310 / 231006.8 -8.0 5.1
2014-Nov-20 08:00N 48°00' W 088°12'6711.1 330 / 201006.8 -8.7 5.2
2014-Nov-20 02:00N 47°42' W 089°48'1212.1 320 / 251006.410.8 1.0-6.8 5.3
2014-Nov-20 01:00N 47°42' W 090°06'1413.5 320 / 221006.8 -7.4 5.3
2014-Nov-20 00:00N 47°36' W 090°24'8 8.1 310 / 261006.1 -6.2 5.0
2014-Nov-19 23:00N 47°36' W 090°36'1413.5 300 / 231006.1 -5.7 4.9
2014-Nov-19 22:00N 47°30' W 090°54'1414.5 320 / 241005.8 -5.7 5.0
2014-Nov-19 21:00N 47°18' W 091°06'1010.1 300 / 241005.4 -4.8 4.9
2014-Nov-19 20:00N 47°12' W 091°18'1514.5 280 / 171005.8 -5.1 4.9
2014-Nov-19 19:00N 47°00' W 091°30'1413.7 290 / 241006.1 -5.1 4.7
2014-Nov-19 18:00N 46°54' W 091°48'1010.2 300 / 271006.4 -5.0 4.5
2014-Nov-19 17:00N 46°48' W 092°00'4 4.1 310 / 181007.5 -5.8 3.9
2014-Nov-19 16:00N 46°48' W 092°06'6 6.0 310 / 111007.5 -6.8 1.0
2014-Nov-19 15:00N 46°42' W 092°06'0 0.0 290 / 101007.5 -7.5 0.9
2014-Nov-19 14:00N 46°42' W 092°06'0 0.0 270 / 101006.8 -7.3 1.0
2014-Nov-19 13:00N 46°42' W 092°06'0 0.0 220 / 71006.1 -8.0 1.1
2014-Nov-19 12:00N 46°42' W 092°06'0 0.0 220 / 71006.1 -7.7 1.4
2014-Nov-19 11:00N 46°42' W 092°06'0 0.0 230 / 51006.1 -8.3 1.8
2014-Nov-19 10:00N 46°42' W 092°06'0 0.0 200 / 41006.1 -9.1 1.7
2014-Nov-19 09:00N 46°42' W 092°06'0 0.0 200 / 31006.8 -8.8 1.9
2014-Nov-19 08:00N 46°42' W 092°06'0 0.0 220 / 51007.1 -7.6 1.9
2014-Nov-19 07:00N 46°42' W 092°06'0 0.0 200 / 41007.5 -9.3 2.0
2014-Nov-19 06:00N 46°42' W 092°06'0 0.0 200 / 41008.5 -9.2 2.1
2014-Nov-19 05:00N 46°42' W 092°06'0 0.0 200 / 61008.8 -9.0 1.9
2014-Nov-19 04:00N 46°42' W 092°06'0 0.0 200 / 91009.8 -8.1 0.4
2014-Nov-19 03:00N 46°42' W 092°06'0 0.0 200 / 81010.5 -7.4 0.4
2014-Nov-19 02:00N 46°42' W 092°06'0 0.0 290 / 91010.8 -7.8 0.4
2014-Nov-19 01:00N 46°42' W 092°06'0 0.0 290 / 101011.5 -7.2 0.4
2014-Nov-19 00:00N 46°42' W 092°06'0 0.0 190 / 81011.9 -7.1 0.4
2014-Nov-18 23:00N 46°42' W 092°06'0 0.0 250 / 81012.2 -7.1 0.4
2014-Nov-18 22:00N 46°42' W 092°06'6 6.0 260 / 131012.2 -7.2 0.6
2014-Nov-18 21:00N 46°48' W 092°06'1413.7 250 / 111012.2 -9.0 4.3
2014-Nov-18 20:00N 46°54' W 091°48'1010.2 250 / 141011.5 -9.1 4.9
2014-Nov-18 19:00N 47°00' W 091°36'1514.5 260 / 141011.2 -8.8 4.8
2014-Nov-18 18:00N 47°12' W 091°24'1413.6 340 / 131010.8 -9.2 4.9
2014-Nov-18 17:00N 47°18' W 091°06'1414.5 290 / 181010.5 -9.5 5.0
2014-Nov-18 16:00N 47°30' W 090°54'1010.1 310 / 181010.8 -11.1 5.1
2014-Nov-18 15:00N 47°36' W 090°42'1413.5 320 / 201009.810.8 -12.7 4.7
2014-Nov-18 14:00N 47°42' W 090°24'1413.5 310 / 171008.8 -11.2 5.0
2014-Nov-18 13:00N 47°48' W 090°06'1212.1 310 / 221007.1 5.3
2014-Nov-18 12:00N 47°48' W 089°48'1313.5 320 / 311005.1 -10.8 5.8
2014-Nov-18 11:00N 47°54' W 089°30'1010.0 340 / 241005.8 -10.5 5.7
2014-Nov-18 10:00N 47°48' W 089°18'4511.2 330 / 251005.8 4.7
2014-Nov-18 06:00N 47°54' W 088°12'7 7.2 350 / 31999.7 -6.9 5.4
2014-Nov-18 05:00N 47°48' W 088°06'1010.1 330 / 301000.3 5.4 -6.8 5.3
2014-Nov-18 04:00N 47°42' W 087°54'1010.1 330 / 28999.7 0.5 -7.1 5.2
2014-Nov-18 03:00N 47°36' W 087°42'10610.6 360 / 27998.6 -6.6 5.6
2014-Nov-17 17:00N 46°54' W 085°18'1413.7 340 / 23999.310.8 -6.0 6.2
2014-Nov-17 16:00N 46°48' W 085°00'1010.2 170 / 141000.7 -6.5 6.1
2014-Nov-17 15:00N 46°42' W 084°48'1514.6 220 / 151002.0 5.4 -6.4 7.2
2014-Nov-17 14:00N 46°30' W 084°36'8 8.3 250 / 161002.0 -4.8 6.6
2014-Nov-17 13:00N 46°30' W 084°24'4 4.1 280 / 61003.0 -3.5 5.4
2014-Nov-17 12:00N 46°30' W 084°18'6 6.0 300 / 41003.2 -3.3 5.2
2014-Nov-17 11:00N 46°24' W 084°18'7 7.3 250 / 31003.9 -2.9 5.3
2014-Nov-17 10:00N 46°18' W 084°12'7 7.3 180 / 81004.2 -2.0 5.0
2014-Nov-17 09:00N 46°12' W 084°06'7 7.3 190 / 141005.2 0.3 4.5
2014-Nov-17 08:00N 46°06' W 084°00'1312.7 170 / 141006.2 -0.3 3.6
2014-Nov-17 07:00N 45°54' W 083°54'1514.6 210 / 231006.9 -0.0 5.5
2014-Nov-17 06:00N 45°42' W 083°42'1010.3 200 / 251007.9 -0.1 5.9
2014-Nov-17 05:00N 45°36' W 083°30'1312.7 190 / 231008.9 -0.2 7.2
2014-Nov-17 04:00N 45°24' W 083°24'1514.7 210 / 201010.310.8 -0.8 7.5
2014-Nov-17 03:00N 45°12' W 083°12'1312.7 220 / 251011.3 -0.4 7.5
2014-Nov-17 02:00N 45°00' W 083°06'1312.7 210 / 231012.010.8 0.4 7.8
2014-Nov-17 01:00N 44°48' W 083°00'1312.7 240 / 211013.3 0.6 7.8
2014-Nov-17 00:00N 44°36' W 082°54'1312.7 230 / 191014.0 1.1 7.7
2014-Nov-16 23:00N 44°24' W 082°48'1312.7 200 / 201015.0 5.4 1.0 0.2 7.6
2014-Nov-16 22:00N 44°12' W 082°42'1312.8 220 / 201015.4 5.4 -0.2 7.7
2014-Nov-16 21:00N 44°00' W 082°36'1312.8 250 / 151016.0 -0.0 7.8
2014-Nov-16 20:00N 43°48' W 082°30'1818.0 220 / 131016.4 -0.1 7.5
2014-Nov-16 19:00N 43°30' W 082°30'1312.8 210 / 141016.7 -0.0 8.1
2014-Nov-16 18:00N 43°18' W 082°24'1212.0 210 / 141017.1 0.2 8.0
2014-Nov-16 17:00N 43°06' W 082°24'6 6.0 220 / 151018.4 0.2 7.9
2014-Nov-16 16:00N 43°00' W 082°24'1312.8 230 / 101019.4 0.3 7.6
2014-Nov-16 15:00N 42°48' W 082°30'   200 / 121020.1 -0.1 7.6

Dump ship's entire track history